Terminal Aerodrome Forecast
Issued by NWS

Home | Current Version | Previous Version | Text Only | Print | Product List | Glossary Off
Versions: 1 2 3 4 5 6 7 8 9 10 11 12 13 14 15

681
FTUS43 KMPX 220540
TAFRNH
TAF
KRNH 220540Z 2206/2306 VRB03KT P6SM SKC
     FM221500 18008KT P6SM FEW250
     FM221800 18012G20KT P6SM SCT250=

USA.gov is the U.S. government's official web portal to all federal, state and local government web resources and services.